createdAt,value
2022-08-30T00:03:57.908Z,14.74
2022-08-30T00:09:59.921Z,14.50
2022-08-30T00:16:02.259Z,14.76
2022-08-30T00:22:06.848Z,14.67
2022-08-30T00:28:09.817Z,14.66
2022-08-30T00:34:11.778Z,14.74
2022-08-30T00:40:16.000Z,14.53
2022-08-30T00:46:18.235Z,14.39
2022-08-30T00:52:22.267Z,14.18
2022-08-30T00:58:37.208Z,14.01
2022-08-30T01:04:42.774Z,14.12
2022-08-30T01:10:44.972Z,14.17
2022-08-30T01:16:47.472Z,14.26
2022-08-30T01:22:49.555Z,14.15
2022-08-30T01:28:56.931Z,14.06
2022-08-30T01:34:58.899Z,13.92
2022-08-30T01:41:13.336Z,13.97
2022-08-30T01:47:18.195Z,13.88
2022-08-30T01:53:20.313Z,13.91
2022-08-30T01:59:22.308Z,14.12
2022-08-30T02:05:24.838Z,13.83
2022-08-30T02:11:26.895Z,13.76
2022-08-30T02:17:28.866Z,13.77
2022-08-30T02:23:31.259Z,13.61
2022-08-30T02:29:33.213Z,13.53
2022-08-30T02:35:35.271Z,13.44
2022-08-30T02:41:39.003Z,13.21
2022-08-30T02:47:46.687Z,13.19
2022-08-30T02:53:49.854Z,13.34
2022-08-30T02:59:52.349Z,13.39
2022-08-30T03:05:54.455Z,13.42
2022-08-30T03:11:56.408Z,13.42
2022-08-30T03:17:58.601Z,13.36
2022-08-30T03:24:00.560Z,13.09
2022-08-30T03:30:02.714Z,12.99
2022-08-30T03:36:05.534Z,13.06
2022-08-30T03:42:07.703Z,13.07
2022-08-30T03:48:11.050Z,13.43
2022-08-30T03:54:13.524Z,13.11
2022-08-30T04:00:19.045Z,12.94
2022-08-30T04:06:21.010Z,13.07
2022-08-30T04:12:23.041Z,12.97
2022-08-30T04:18:25.258Z,13.03
2022-08-30T04:24:27.637Z,13.36
2022-08-30T04:30:29.762Z,13.25
2022-08-30T04:36:31.754Z,13.24
2022-08-30T04:42:35.294Z,13.33
2022-08-30T04:48:38.481Z,13.56
2022-08-30T04:54:40.520Z,13.48
2022-08-30T05:00:44.584Z,13.75
2022-08-30T05:06:46.702Z,13.67
2022-08-30T05:12:48.721Z,13.85
2022-08-30T05:18:52.393Z,13.93
2022-08-30T05:24:54.434Z,14.12
2022-08-30T05:30:56.376Z,14.00
2022-08-30T05:36:59.454Z,14.05
2022-08-30T05:43:01.470Z,14.30
2022-08-30T05:49:06.162Z,14.61
2022-08-30T05:55:09.714Z,15.03
2022-08-30T06:01:28.011Z,15.09
2022-08-30T06:07:30.119Z,15.33
2022-08-30T06:13:32.707Z,15.26
2022-08-30T06:19:34.681Z,15.47
2022-08-30T06:25:41.915Z,15.69
2022-08-30T06:31:44.425Z,15.82
2022-08-30T06:37:46.406Z,16.46
2022-08-30T06:43:49.443Z,16.69
2022-08-30T06:49:51.436Z,16.96
2022-08-30T06:55:59.538Z,17.09
2022-08-30T07:02:01.597Z,17.50
2022-08-30T07:08:03.885Z,17.68
2022-08-30T07:14:07.463Z,17.88
2022-08-30T07:20:10.419Z,17.72
2022-08-30T07:26:15.919Z,17.75
2022-08-30T07:32:17.893Z,17.99
2022-08-30T07:38:19.929Z,17.82
2022-08-30T07:44:25.011Z,17.80
2022-08-30T07:50:27.582Z,18.06
2022-08-30T07:56:29.619Z,18.21
2022-08-30T08:02:31.652Z,18.40
2022-08-30T08:08:34.938Z,18.72
2022-08-30T08:14:37.241Z,18.54
2022-08-30T08:20:39.201Z,18.98
2022-08-30T08:26:45.378Z,19.21
2022-08-30T08:32:48.999Z,19.29
2022-08-30T08:38:50.987Z,20.30
2022-08-30T08:45:19.329Z,20.37
2022-08-30T08:51:46.122Z,21.06
2022-08-30T08:57:48.280Z,22.21
2022-08-30T09:03:50.981Z,23.42
2022-08-30T09:09:53.089Z,23.76
2022-08-30T09:15:59.549Z,24.71
2022-08-30T09:22:12.844Z,25.10
2022-08-30T09:28:18.501Z,24.65
2022-08-30T09:34:23.907Z,24.97
2022-08-30T09:40:44.370Z,24.01
2022-08-30T09:46:56.079Z,25.34
2022-08-30T09:53:23.335Z,26.02
2022-08-30T09:59:46.775Z,27.35
2022-08-30T10:06:11.703Z,27.71
2022-08-30T10:12:32.989Z,27.02
2022-08-30T10:19:06.391Z,27.71
2022-08-30T10:25:25.505Z,28.55
2022-08-30T10:31:53.953Z,29.39
2022-08-30T10:38:06.209Z,30.30
2022-08-30T10:44:30.919Z,30.20
2022-08-30T10:50:42.834Z,29.79
2022-08-30T10:56:51.426Z,30.36
2022-08-30T11:03:26.535Z,30.23
2022-08-30T11:09:46.300Z,31.20
2022-08-30T11:16:09.250Z,31.74
2022-08-30T11:22:24.325Z,31.50
2022-08-30T11:28:38.509Z,32.17
2022-08-30T11:34:46.812Z,33.26
2022-08-30T11:41:11.263Z,32.25
2022-08-30T11:47:42.144Z,30.30
2022-08-30T11:54:06.506Z,31.88
2022-08-30T12:00:35.562Z,32.93
2022-08-30T12:06:40.472Z,34.45
2022-08-30T12:12:48.903Z,35.65
2022-08-30T12:19:00.073Z,35.76
2022-08-30T12:25:13.496Z,35.90
2022-08-30T12:31:26.956Z,34.17
2022-08-30T12:37:31.999Z,32.90
2022-08-30T12:43:52.836Z,33.37
2022-08-30T12:49:56.270Z,34.94
2022-08-30T12:56:05.524Z,35.29
2022-08-30T13:02:22.863Z,34.52
2022-08-30T13:08:50.629Z,35.85
2022-08-30T13:15:08.946Z,35.76
2022-08-30T13:21:25.888Z,36.43
2022-08-30T13:27:29.710Z,38.23
2022-08-30T13:33:31.858Z,38.36
2022-08-30T13:39:34.562Z,37.67
2022-08-30T13:45:42.132Z,38.94
2022-08-30T13:51:53.779Z,39.21
2022-08-30T13:58:06.619Z,39.52
2022-08-30T14:04:16.315Z,35.95
2022-08-30T14:10:45.690Z,31.77
2022-08-30T14:16:46.320Z,29.87
2022-08-30T14:22:48.420Z,30.76
2022-08-30T14:28:51.731Z,33.08
2022-08-30T14:34:54.104Z,30.53
2022-08-30T14:40:56.114Z,29.48
2022-08-30T14:46:58.393Z,29.35
2022-08-30T14:53:03.077Z,32.00
2022-08-30T14:59:05.752Z,35.62
2022-08-30T15:05:08.487Z,35.74
2022-08-30T15:11:13.553Z,37.00
2022-08-30T15:17:17.893Z,36.81
2022-08-30T15:23:22.876Z,35.97
2022-08-30T15:29:27.636Z,35.72
2022-08-30T15:35:33.559Z,35.05
2022-08-30T15:41:36.091Z,36.26
2022-08-30T15:47:39.674Z,37.62
2022-08-30T15:53:43.925Z,37.82
2022-08-30T15:59:46.400Z,37.69
2022-08-30T16:05:48.381Z,38.20
2022-08-30T16:11:52.024Z,37.71
2022-08-30T16:17:54.093Z,37.31
2022-08-30T16:23:59.948Z,36.82
2022-08-30T16:30:01.965Z,37.39
2022-08-30T16:36:05.040Z,36.42
2022-08-30T16:42:07.923Z,36.40
2022-08-30T16:48:17.008Z,36.77
2022-08-30T16:54:19.127Z,35.94
2022-08-30T17:00:21.961Z,35.85
2022-08-30T17:06:24.266Z,35.25
2022-08-30T17:12:26.668Z,34.34
2022-08-30T17:18:28.616Z,34.17
2022-08-30T17:24:30.787Z,32.69
2022-08-30T17:30:33.512Z,31.51
2022-08-30T17:36:36.938Z,31.03
2022-08-30T17:42:39.252Z,30.20
2022-08-30T17:48:41.276Z,28.63
2022-08-30T17:54:43.341Z,26.81
2022-08-30T18:00:45.614Z,25.50
2022-08-30T18:06:48.136Z,24.37
2022-08-30T18:12:51.166Z,23.46
2022-08-30T18:18:57.324Z,22.74
2022-08-30T18:25:02.419Z,22.19
2022-08-30T18:31:05.000Z,21.63
2022-08-30T18:37:12.789Z,21.11
2022-08-30T18:43:16.696Z,20.78
2022-08-30T18:49:18.666Z,20.61
2022-08-30T18:55:20.890Z,20.55
2022-08-30T19:01:23.182Z,20.43
2022-08-30T19:07:29.003Z,20.27
2022-08-30T19:13:47.917Z,20.15
2022-08-30T19:19:52.158Z,20.11
2022-08-30T19:25:55.107Z,20.13
2022-08-30T19:31:57.210Z,19.97
2022-08-30T19:37:59.437Z,20.20
2022-08-30T19:44:03.143Z,20.01
2022-08-30T19:50:07.519Z,19.94
2022-08-30T19:56:11.298Z,19.99
2022-08-30T20:02:13.711Z,19.78
2022-08-30T20:08:15.824Z,19.92
2022-08-30T20:14:17.887Z,19.69
2022-08-30T20:20:21.972Z,19.58
2022-08-30T20:26:33.638Z,19.56
2022-08-30T20:32:37.796Z,19.49
2022-08-30T20:38:40.246Z,19.29
2022-08-30T20:44:43.031Z,19.24
2022-08-30T20:50:45.538Z,19.26
2022-08-30T20:56:47.550Z,19.27
2022-08-30T21:02:50.337Z,19.21
2022-08-30T21:08:52.947Z,19.06
2022-08-30T21:14:55.167Z,19.05
2022-08-30T21:20:58.490Z,19.05
2022-08-30T21:27:00.734Z,19.00
2022-08-30T21:33:04.902Z,18.86
2022-08-30T21:39:08.505Z,18.80
2022-08-30T21:45:11.119Z,18.59
2022-08-30T21:51:13.303Z,18.64
2022-08-30T21:57:16.929Z,18.78
2022-08-30T22:03:19.023Z,18.43
2022-08-30T22:09:24.693Z,18.35
2022-08-30T22:15:26.841Z,18.28
2022-08-30T22:21:32.261Z,18.10
2022-08-30T22:27:34.683Z,18.05
2022-08-30T22:33:37.652Z,18.08
2022-08-30T22:39:39.728Z,18.15
2022-08-30T22:45:42.221Z,17.97
2022-08-30T22:51:44.304Z,17.89
2022-08-30T22:57:46.256Z,17.71
2022-08-30T23:03:49.245Z,17.64
2022-08-30T23:09:51.240Z,17.47
2022-08-30T23:15:53.250Z,17.46
2022-08-30T23:21:55.185Z,17.48
2022-08-30T23:28:17.467Z,17.48
2022-08-30T23:34:41.185Z,17.37
2022-08-30T23:41:01.905Z,17.53
2022-08-30T23:47:22.429Z,17.30
2022-08-30T23:53:43.695Z,17.30
